sensor_id;sensor_type;location;lat;lon;timestamp;P1;durP1;ratioP1;P2;durP2;ratioP2
52025;SDS011;38041;40.058;18.328;2023-02-01T00:00:06;3.40;;;0.63;;
52025;SDS011;38041;40.058;18.328;2023-02-01T00:02:34;4.63;;;0.50;;
52025;SDS011;38041;40.058;18.328;2023-02-01T00:05:07;1.83;;;0.30;;
52025;SDS011;38041;40.058;18.328;2023-02-01T00:07:35;2.70;;;0.30;;
52025;SDS011;38041;40.058;18.328;2023-02-01T00:10:03;2.70;;;0.40;;
52025;SDS011;38041;40.058;18.328;2023-02-01T00:12:31;3.63;;;0.47;;
52025;SDS011;38041;40.058;18.328;2023-02-01T00:14:59;1.13;;;0.30;;
52025;SDS011;38041;40.058;18.328;2023-02-01T00:17:27;5.93;;;0.73;;
52025;SDS011;38041;40.058;18.328;2023-02-01T00:19:55;0.97;;;0.27;;
52025;SDS011;38041;40.058;18.328;2023-02-01T00:22:22;4.83;;;1.23;;
52025;SDS011;38041;40.058;18.328;2023-02-01T00:24:50;1.30;;;0.73;;
52025;SDS011;38041;40.058;18.328;2023-02-01T00:27:17;1.33;;;0.30;;
52025;SDS011;38041;40.058;18.328;2023-02-01T00:29:47;5.07;;;0.50;;
52025;SDS011;38041;40.058;18.328;2023-02-01T00:32:15;2.23;;;0.27;;
52025;SDS011;38041;40.058;18.328;2023-02-01T00:34:43;1.70;;;0.30;;
52025;SDS011;38041;40.058;18.328;2023-02-01T00:37:10;6.87;;;0.53;;
52025;SDS011;38041;40.058;18.328;2023-02-01T00:39:38;2.00;;;0.40;;
52025;SDS011;38041;40.058;18.328;2023-02-01T00:42:06;4.40;;;0.40;;
52025;SDS011;38041;40.058;18.328;2023-02-01T00:44:33;3.10;;;0.30;;
52025;SDS011;38041;40.058;18.328;2023-02-01T00:47:02;7.37;;;0.60;;
52025;SDS011;38041;40.058;18.328;2023-02-01T00:49:30;1.33;;;0.40;;
52025;SDS011;38041;40.058;18.328;2023-02-01T00:51:57;2.80;;;0.83;;
52025;SDS011;38041;40.058;18.328;2023-02-01T00:54:25;1.53;;;0.40;;
52025;SDS011;38041;40.058;18.328;2023-02-01T00:56:53;2.60;;;0.43;;
52025;SDS011;38041;40.058;18.328;2023-02-01T00:59:20;2.47;;;0.50;;
52025;SDS011;38041;40.058;18.328;2023-02-01T01:01:48;8.33;;;0.47;;
52025;SDS011;38041;40.058;18.328;2023-02-01T01:04:16;3.47;;;0.90;;
52025;SDS011;38041;40.058;18.328;2023-02-01T01:06:43;3.93;;;0.70;;
52025;SDS011;38041;40.058;18.328;2023-02-01T01:09:11;0.93;;;0.33;;
52025;SDS011;38041;40.058;18.328;2023-02-01T01:11:39;3.67;;;1.03;;
52025;SDS011;38041;40.058;18.328;2023-02-01T01:14:07;3.60;;;0.40;;
52025;SDS011;38041;40.058;18.328;2023-02-01T01:16:35;4.07;;;0.40;;
52025;SDS011;38041;40.058;18.328;2023-02-01T01:19:03;7.53;;;0.97;;
52025;SDS011;38041;40.058;18.328;2023-02-01T01:21:31;3.57;;;0.30;;
52025;SDS011;38041;40.058;18.328;2023-02-01T01:23:59;5.13;;;0.40;;
52025;SDS011;38041;40.058;18.328;2023-02-01T01:26:27;2.70;;;0.20;;
52025;SDS011;38041;40.058;18.328;2023-02-01T01:28:56;0.90;;;0.20;;
52025;SDS011;38041;40.058;18.328;2023-02-01T01:31:24;1.37;;;0.30;;
52025;SDS011;38041;40.058;18.328;2023-02-01T01:33:53;1.10;;;0.20;;
52025;SDS011;38041;40.058;18.328;2023-02-01T01:36:21;4.37;;;0.30;;
52025;SDS011;38041;40.058;18.328;2023-02-01T01:38:48;1.53;;;0.20;;
52025;SDS011;38041;40.058;18.328;2023-02-01T01:41:18;1.33;;;0.40;;
52025;SDS011;38041;40.058;18.328;2023-02-01T01:43:57;0.80;;;0.17;;
52025;SDS011;38041;40.058;18.328;2023-02-01T01:46:27;2.67;;;0.20;;
52025;SDS011;38041;40.058;18.328;2023-02-01T01:51:24;3.33;;;0.40;;
52025;SDS011;38041;40.058;18.328;2023-02-01T01:54:03;0.90;;;0.10;;
52025;SDS011;38041;40.058;18.328;2023-02-01T01:56:32;1.53;;;0.20;;
52025;SDS011;38041;40.058;18.328;2023-02-01T01:59:01;2.00;;;0.30;;
52025;SDS011;38041;40.058;18.328;2023-02-01T02:01:29;5.27;;;0.40;;
52025;SDS011;38041;40.058;18.328;2023-02-01T02:03:57;3.27;;;0.40;;
52025;SDS011;38041;40.058;18.328;2023-02-01T02:06:31;1.10;;;0.30;;
52025;SDS011;38041;40.058;18.328;2023-02-01T02:09:00;2.17;;;0.50;;
52025;SDS011;38041;40.058;18.328;2023-02-01T02:11:30;3.50;;;0.30;;
52025;SDS011;38041;40.058;18.328;2023-02-01T02:13:57;1.37;;;0.40;;
52025;SDS011;38041;40.058;18.328;2023-02-01T02:19:15;5.57;;;0.50;;
52025;SDS011;38041;40.058;18.328;2023-02-01T02:27:15;2.77;;;0.20;;
52025;SDS011;38041;40.058;18.328;2023-02-01T02:33:22;3.83;;;0.30;;
52025;SDS011;38041;40.058;18.328;2023-02-01T02:35:49;1.10;;;0.20;;
52025;SDS011;38041;40.058;18.328;2023-02-01T02:38:23;0.80;;;0.20;;
52025;SDS011;38041;40.058;18.328;2023-02-01T02:43:31;2.40;;;0.40;;
52025;SDS011;38041;40.058;18.328;2023-02-01T02:51:47;1.43;;;0.20;;
52025;SDS011;38041;40.058;18.328;2023-02-01T02:54:36;2.87;;;0.27;;
52025;SDS011;38041;40.058;18.328;2023-02-01T02:57:32;2.83;;;0.23;;
52025;SDS011;38041;40.058;18.328;2023-02-01T03:00:24;2.07;;;0.30;;
52025;SDS011;38041;40.058;18.328;2023-02-01T03:03:13;1.50;;;0.60;;
52025;SDS011;38041;40.058;18.328;2023-02-01T03:05:59;1.90;;;0.40;;
52025;SDS011;38041;40.058;18.328;2023-02-01T03:08:29;2.13;;;0.53;;
52025;SDS011;38041;40.058;18.328;2023-02-01T03:16:13;2.43;;;0.30;;
52025;SDS011;38041;40.058;18.328;2023-02-01T03:21:29;3.50;;;0.20;;
52025;SDS011;38041;40.058;18.328;2023-02-01T03:24:00;1.33;;;0.20;;
52025;SDS011;38041;40.058;18.328;2023-02-01T03:26:30;4.30;;;0.30;;
52025;SDS011;38041;40.058;18.328;2023-02-01T03:29:00;1.33;;;0.27;;
52025;SDS011;38041;40.058;18.328;2023-02-01T03:31:30;1.57;;;0.20;;
52025;SDS011;38041;40.058;18.328;2023-02-01T03:33:58;3.40;;;0.20;;
52025;SDS011;38041;40.058;18.328;2023-02-01T03:38:58;1.83;;;0.10;;
52025;SDS011;38041;40.058;18.328;2023-02-01T03:44:13;1.43;;;0.17;;
52025;SDS011;38041;40.058;18.328;2023-02-01T03:46:46;4.47;;;1.60;;
52025;SDS011;38041;40.058;18.328;2023-02-01T03:49:33;4.20;;;0.90;;
52025;SDS011;38041;40.058;18.328;2023-02-01T03:52:03;2.43;;;0.20;;
52025;SDS011;38041;40.058;18.328;2023-02-01T03:54:33;1.23;;;0.20;;
52025;SDS011;38041;40.058;18.328;2023-02-01T03:57:02;7.03;;;0.93;;
52025;SDS011;38041;40.058;18.328;2023-02-01T03:59:32;1.63;;;0.20;;
52025;SDS011;38041;40.058;18.328;2023-02-01T04:02:00;0.83;;;0.10;;
52025;SDS011;38041;40.058;18.328;2023-02-01T04:04:27;1.23;;;0.20;;
52025;SDS011;38041;40.058;18.328;2023-02-01T04:06:56;1.20;;;0.67;;
52025;SDS011;38041;40.058;18.328;2023-02-01T04:09:23;1.10;;;0.40;;
52025;SDS011;38041;40.058;18.328;2023-02-01T04:11:51;3.83;;;0.30;;
52025;SDS011;38041;40.058;18.328;2023-02-01T04:14:19;1.97;;;0.27;;
52025;SDS011;38041;40.058;18.328;2023-02-01T04:16:46;3.10;;;0.50;;
52025;SDS011;38041;40.058;18.328;2023-02-01T04:19:14;5.57;;;0.30;;
52025;SDS011;38041;40.058;18.328;2023-02-01T04:21:42;3.03;;;0.40;;
52025;SDS011;38041;40.058;18.328;2023-02-01T04:24:09;5.80;;;0.30;;
52025;SDS011;38041;40.058;18.328;2023-02-01T04:26:37;1.50;;;0.20;;
52025;SDS011;38041;40.058;18.328;2023-02-01T04:29:05;2.63;;;0.40;;
52025;SDS011;38041;40.058;18.328;2023-02-01T04:31:33;0.80;;;0.20;;
52025;SDS011;38041;40.058;18.328;2023-02-01T04:34:02;1.17;;;0.20;;
52025;SDS011;38041;40.058;18.328;2023-02-01T04:36:30;5.53;;;0.40;;
52025;SDS011;38041;40.058;18.328;2023-02-01T04:38:57;2.00;;;0.30;;
52025;SDS011;38041;40.058;18.328;2023-02-01T04:41:25;2.07;;;0.30;;
52025;SDS011;38041;40.058;18.328;2023-02-01T04:43:53;1.50;;;0.30;;
52025;SDS011;38041;40.058;18.328;2023-02-01T04:46:20;3.30;;;0.53;;
52025;SDS011;38041;40.058;18.328;2023-02-01T04:48:48;3.17;;;0.40;;
52025;SDS011;38041;40.058;18.328;2023-02-01T04:51:16;2.03;;;0.37;;
52025;SDS011;38041;40.058;18.328;2023-02-01T04:53:44;4.00;;;1.20;;
52025;SDS011;38041;40.058;18.328;2023-02-01T04:56:12;3.60;;;0.73;;
52025;SDS011;38041;40.058;18.328;2023-02-01T04:58:40;4.97;;;0.30;;
52025;SDS011;38041;40.058;18.328;2023-02-01T05:01:07;1.77;;;0.30;;
52025;SDS011;38041;40.058;18.328;2023-02-01T05:03:35;2.27;;;0.30;;
52025;SDS011;38041;40.058;18.328;2023-02-01T05:06:03;1.33;;;0.30;;
52025;SDS011;38041;40.058;18.328;2023-02-01T05:08:31;1.13;;;0.27;;
52025;SDS011;38041;40.058;18.328;2023-02-01T05:10:59;4.90;;;0.30;;
52025;SDS011;38041;40.058;18.328;2023-02-01T05:13:29;2.00;;;0.20;;
52025;SDS011;38041;40.058;18.328;2023-02-01T05:16:15;2.03;;;0.30;;
52025;SDS011;38041;40.058;18.328;2023-02-01T05:18:43;4.33;;;0.93;;
52025;SDS011;38041;40.058;18.328;2023-02-01T05:21:11;3.07;;;0.97;;
52025;SDS011;38041;40.058;18.328;2023-02-01T05:23:39;3.37;;;1.60;;
52025;SDS011;38041;40.058;18.328;2023-02-01T05:26:25;4.67;;;4.27;;
52025;SDS011;38041;40.058;18.328;2023-02-01T05:28:53;5.97;;;4.93;;
52025;SDS011;38041;40.058;18.328;2023-02-01T05:31:21;6.67;;;4.00;;
52025;SDS011;38041;40.058;18.328;2023-02-01T05:33:48;4.03;;;2.20;;
52025;SDS011;38041;40.058;18.328;2023-02-01T05:36:16;3.90;;;1.23;;
52025;SDS011;38041;40.058;18.328;2023-02-01T05:38:44;3.73;;;1.00;;
52025;SDS011;38041;40.058;18.328;2023-02-01T05:41:12;6.23;;;1.70;;
52025;SDS011;38041;40.058;18.328;2023-02-01T05:43:39;3.37;;;1.53;;
52025;SDS011;38041;40.058;18.328;2023-02-01T05:46:07;3.73;;;0.97;;
52025;SDS011;38041;40.058;18.328;2023-02-01T05:48:39;1.77;;;0.60;;
52025;SDS011;38041;40.058;18.328;2023-02-01T05:51:08;2.10;;;0.50;;
52025;SDS011;38041;40.058;18.328;2023-02-01T05:53:36;6.03;;;0.60;;
52025;SDS011;38041;40.058;18.328;2023-02-01T05:56:04;5.83;;;0.30;;
52025;SDS011;38041;40.058;18.328;2023-02-01T05:58:32;3.80;;;0.40;;
52025;SDS011;38041;40.058;18.328;2023-02-01T06:01:00;3.07;;;0.40;;
52025;SDS011;38041;40.058;18.328;2023-02-01T06:03:28;4.47;;;0.80;;
52025;SDS011;38041;40.058;18.328;2023-02-01T06:05:55;3.53;;;0.57;;
52025;SDS011;38041;40.058;18.328;2023-02-01T06:08:23;3.73;;;0.37;;
52025;SDS011;38041;40.058;18.328;2023-02-01T06:11:02;4.00;;;0.30;;
52025;SDS011;38041;40.058;18.328;2023-02-01T06:13:30;3.13;;;0.40;;
52025;SDS011;38041;40.058;18.328;2023-02-01T06:16:00;4.33;;;0.57;;
52025;SDS011;38041;40.058;18.328;2023-02-01T06:18:29;4.73;;;0.70;;
52025;SDS011;38041;40.058;18.328;2023-02-01T06:20:57;3.87;;;0.40;;
52025;SDS011;38041;40.058;18.328;2023-02-01T06:23:29;4.43;;;1.40;;
52025;SDS011;38041;40.058;18.328;2023-02-01T06:26:04;1.73;;;0.53;;
52025;SDS011;38041;40.058;18.328;2023-02-01T06:28:32;2.45;;;0.70;;
52025;SDS011;38041;40.058;18.328;2023-02-01T06:31:06;5.13;;;1.63;;
52025;SDS011;38041;40.058;18.328;2023-02-01T06:33:35;5.37;;;1.20;;
52025;SDS011;38041;40.058;18.328;2023-02-01T06:36:04;7.53;;;1.23;;
52025;SDS011;38041;40.058;18.328;2023-02-01T06:38:32;6.20;;;1.40;;
52025;SDS011;38041;40.058;18.328;2023-02-01T06:41:01;4.73;;;1.33;;
52025;SDS011;38041;40.058;18.328;2023-02-01T06:43:30;3.47;;;0.83;;
52025;SDS011;38041;40.058;18.328;2023-02-01T06:46:00;5.53;;;1.00;;
52025;SDS011;38041;40.058;18.328;2023-02-01T06:48:28;6.67;;;1.67;;
52025;SDS011;38041;40.058;18.328;2023-02-01T06:50:56;5.97;;;1.27;;
52025;SDS011;38041;40.058;18.328;2023-02-01T06:53:24;5.77;;;1.20;;
52025;SDS011;38041;40.058;18.328;2023-02-01T06:55:55;5.70;;;1.87;;
52025;SDS011;38041;40.058;18.328;2023-02-01T06:58:23;4.20;;;1.00;;
52025;SDS011;38041;40.058;18.328;2023-02-01T07:00:51;3.30;;;1.40;;
52025;SDS011;38041;40.058;18.328;2023-02-01T07:03:20;4.50;;;1.70;;
52025;SDS011;38041;40.058;18.328;2023-02-01T07:05:48;7.80;;;2.93;;
52025;SDS011;38041;40.058;18.328;2023-02-01T07:08:16;8.47;;;2.57;;
52025;SDS011;38041;40.058;18.328;2023-02-01T07:10:43;9.43;;;2.10;;
52025;SDS011;38041;40.058;18.328;2023-02-01T07:13:11;5.00;;;1.90;;
52025;SDS011;38041;40.058;18.328;2023-02-01T07:15:39;4.00;;;1.73;;
52025;SDS011;38041;40.058;18.328;2023-02-01T07:18:07;6.90;;;1.90;;
52025;SDS011;38041;40.058;18.328;2023-02-01T07:20:35;4.27;;;1.00;;
52025;SDS011;38041;40.058;18.328;2023-02-01T07:23:02;4.70;;;1.37;;
52025;SDS011;38041;40.058;18.328;2023-02-01T07:25:30;3.60;;;1.23;;
52025;SDS011;38041;40.058;18.328;2023-02-01T07:27:57;6.97;;;3.07;;
52025;SDS011;38041;40.058;18.328;2023-02-01T07:30:25;7.40;;;2.63;;
52025;SDS011;38041;40.058;18.328;2023-02-01T07:32:53;8.33;;;3.67;;
52025;SDS011;38041;40.058;18.328;2023-02-01T07:35:20;10.57;;;5.60;;
52025;SDS011;38041;40.058;18.328;2023-02-01T07:37:48;12.27;;;6.30;;
52025;SDS011;38041;40.058;18.328;2023-02-01T07:40:16;8.63;;;2.87;;
52025;SDS011;38041;40.058;18.328;2023-02-01T07:42:44;5.77;;;2.17;;
52025;SDS011;38041;40.058;18.328;2023-02-01T07:45:12;6.33;;;1.63;;
52025;SDS011;38041;40.058;18.328;2023-02-01T07:47:47;9.33;;;2.50;;
52025;SDS011;38041;40.058;18.328;2023-02-01T07:50:15;4.60;;;1.93;;
52025;SDS011;38041;40.058;18.328;2023-02-01T07:52:42;7.97;;;2.07;;
52025;SDS011;38041;40.058;18.328;2023-02-01T07:55:10;9.53;;;4.33;;
52025;SDS011;38041;40.058;18.328;2023-02-01T07:57:38;6.13;;;2.57;;
52025;SDS011;38041;40.058;18.328;2023-02-01T08:00:05;8.47;;;4.10;;
52025;SDS011;38041;40.058;18.328;2023-02-01T08:02:52;5.57;;;2.20;;
52025;SDS011;38041;40.058;18.328;2023-02-01T08:05:20;9.73;;;4.70;;
52025;SDS011;38041;40.058;18.328;2023-02-01T08:07:51;24.27;;;9.47;;
52025;SDS011;38041;40.058;18.328;2023-02-01T08:10:19;116.80;;;64.33;;
52025;SDS011;38041;40.058;18.328;2023-02-01T08:12:47;22.93;;;10.67;;
52025;SDS011;38041;40.058;18.328;2023-02-01T08:15:15;51.77;;;27.37;;
52025;SDS011;38041;40.058;18.328;2023-02-01T08:17:49;40.77;;;23.93;;
52025;SDS011;38041;40.058;18.328;2023-02-01T08:20:18;9.90;;;5.17;;
52025;SDS011;38041;40.058;18.328;2023-02-01T08:22:49;27.37;;;12.30;;
52025;SDS011;38041;40.058;18.328;2023-02-01T08:25:20;40.33;;;21.00;;
52025;SDS011;38041;40.058;18.328;2023-02-01T08:27:48;20.83;;;11.33;;
52025;SDS011;38041;40.058;18.328;2023-02-01T08:30:16;12.27;;;5.30;;
52025;SDS011;38041;40.058;18.328;2023-02-01T08:32:43;38.13;;;22.67;;
52025;SDS011;38041;40.058;18.328;2023-02-01T08:35:11;30.63;;;16.03;;
52025;SDS011;38041;40.058;18.328;2023-02-01T08:37:39;48.33;;;27.13;;
52025;SDS011;38041;40.058;18.328;2023-02-01T08:40:07;48.80;;;24.03;;
52025;SDS011;38041;40.058;18.328;2023-02-01T08:42:35;46.17;;;23.97;;
52025;SDS011;38041;40.058;18.328;2023-02-01T08:45:18;16.47;;;8.47;;
52025;SDS011;38041;40.058;18.328;2023-02-01T08:47:46;11.37;;;6.10;;
52025;SDS011;38041;40.058;18.328;2023-02-01T08:50:14;44.57;;;20.90;;
52025;SDS011;38041;40.058;18.328;2023-02-01T08:52:42;30.73;;;15.97;;
52025;SDS011;38041;40.058;18.328;2023-02-01T08:55:10;35.97;;;20.93;;
52025;SDS011;38041;40.058;18.328;2023-02-01T08:57:38;59.57;;;33.43;;
52025;SDS011;38041;40.058;18.328;2023-02-01T09:00:07;37.00;;;18.57;;
52025;SDS011;38041;40.058;18.328;2023-02-01T09:02:36;43.27;;;22.73;;
52025;SDS011;38041;40.058;18.328;2023-02-01T09:05:04;75.47;;;39.00;;
52025;SDS011;38041;40.058;18.328;2023-02-01T09:07:32;79.50;;;44.33;;
52025;SDS011;38041;40.058;18.328;2023-02-01T09:10:00;66.10;;;36.83;;
52025;SDS011;38041;40.058;18.328;2023-02-01T09:12:29;41.17;;;21.80;;
52025;SDS011;38041;40.058;18.328;2023-02-01T09:14:57;20.60;;;11.40;;
52025;SDS011;38041;40.058;18.328;2023-02-01T09:17:26;44.47;;;24.17;;
52025;SDS011;38041;40.058;18.328;2023-02-01T09:19:55;73.17;;;42.20;;
52025;SDS011;38041;40.058;18.328;2023-02-01T09:22:22;17.33;;;8.33;;
52025;SDS011;38041;40.058;18.328;2023-02-01T09:24:51;55.77;;;31.87;;
52025;SDS011;38041;40.058;18.328;2023-02-01T09:27:20;48.10;;;25.80;;
52025;SDS011;38041;40.058;18.328;2023-02-01T09:29:48;27.90;;;15.00;;
52025;SDS011;38041;40.058;18.328;2023-02-01T09:32:20;24.30;;;13.67;;
52025;SDS011;38041;40.058;18.328;2023-02-01T09:34:48;13.17;;;5.40;;
52025;SDS011;38041;40.058;18.328;2023-02-01T09:37:16;20.37;;;8.97;;
52025;SDS011;38041;40.058;18.328;2023-02-01T09:39:44;13.30;;;6.80;;
52025;SDS011;38041;40.058;18.328;2023-02-01T09:42:16;26.33;;;12.27;;
52025;SDS011;38041;40.058;18.328;2023-02-01T09:47:34;23.33;;;11.03;;
52025;SDS011;38041;40.058;18.328;2023-02-01T09:53:17;8.20;;;4.03;;
52025;SDS011;38041;40.058;18.328;2023-02-01T09:55:30;5.17;;;2.30;;
52025;SDS011;38041;40.058;18.328;2023-02-01T09:58:02;28.30;;;16.93;;
52025;SDS011;38041;40.058;18.328;2023-02-01T10:00:35;12.63;;;6.00;;
52025;SDS011;38041;40.058;18.328;2023-02-01T10:03:04;18.20;;;8.83;;
52025;SDS011;38041;40.058;18.328;2023-02-01T10:16:36;31.87;;;19.33;;
52025;SDS011;38041;40.058;18.328;2023-02-01T10:27:18;31.53;;;17.73;;
52025;SDS011;38041;40.058;18.328;2023-02-01T10:29:39;25.70;;;15.07;;
52025;SDS011;38041;40.058;18.328;2023-02-01T10:32:11;18.50;;;11.87;;
52025;SDS011;38041;40.058;18.328;2023-02-01T10:34:40;75.53;;;47.17;;
52025;SDS011;38041;40.058;18.328;2023-02-01T10:39:46;45.40;;;27.73;;
52025;SDS011;38041;40.058;18.328;2023-02-01T10:42:16;69.03;;;42.20;;
52025;SDS011;38041;40.058;18.328;2023-02-01T10:44:46;38.60;;;22.70;;
52025;SDS011;38041;40.058;18.328;2023-02-01T10:47:14;8.67;;;3.73;;
52025;SDS011;38041;40.058;18.328;2023-02-01T10:49:49;67.57;;;41.07;;
52025;SDS011;38041;40.058;18.328;2023-02-01T10:55:08;17.63;;;9.60;;
52025;SDS011;38041;40.058;18.328;2023-02-01T10:57:52;43.23;;;26.67;;
52025;SDS011;38041;40.058;18.328;2023-02-01T11:00:22;34.53;;;21.37;;
52025;SDS011;38041;40.058;18.328;2023-02-01T11:02:50;15.53;;;8.17;;
52025;SDS011;38041;40.058;18.328;2023-02-01T11:05:18;26.00;;;14.20;;
52025;SDS011;38041;40.058;18.328;2023-02-01T11:07:49;33.60;;;20.03;;
52025;SDS011;38041;40.058;18.328;2023-02-01T11:10:37;86.07;;;49.73;;
52025;SDS011;38041;40.058;18.328;2023-02-01T11:13:05;17.00;;;10.57;;
52025;SDS011;38041;40.058;18.328;2023-02-01T11:15:33;6.57;;;3.53;;
52025;SDS011;38041;40.058;18.328;2023-02-01T11:18:12;15.57;;;7.63;;
52025;SDS011;38041;40.058;18.328;2023-02-01T11:20:41;9.93;;;5.20;;
52025;SDS011;38041;40.058;18.328;2023-02-01T11:23:16;15.30;;;9.37;;
52025;SDS011;38041;40.058;18.328;2023-02-01T11:25:48;14.63;;;7.00;;
52025;SDS011;38041;40.058;18.328;2023-02-01T11:28:16;49.10;;;29.93;;
52025;SDS011;38041;40.058;18.328;2023-02-01T11:30:45;18.93;;;10.07;;
52025;SDS011;38041;40.058;18.328;2023-02-01T11:33:16;34.07;;;19.37;;
52025;SDS011;38041;40.058;18.328;2023-02-01T11:35:44;30.70;;;14.17;;
52025;SDS011;38041;40.058;18.328;2023-02-01T11:38:20;34.53;;;19.23;;
52025;SDS011;38041;40.058;18.328;2023-02-01T11:40:48;11.53;;;6.23;;
52025;SDS011;38041;40.058;18.328;2023-02-01T11:43:26;32.17;;;17.37;;
52025;SDS011;38041;40.058;18.328;2023-02-01T11:46:01;18.93;;;11.97;;
52025;SDS011;38041;40.058;18.328;2023-02-01T11:48:30;15.25;;;9.80;;
52025;SDS011;38041;40.058;18.328;2023-02-01T11:53:38;4.60;;;2.13;;
52025;SDS011;38041;40.058;18.328;2023-02-01T12:01:19;18.93;;;11.63;;
52025;SDS011;38041;40.058;18.328;2023-02-01T12:25:06;9.80;;;3.73;;
52025;SDS011;38041;40.058;18.328;2023-02-01T12:46:10;12.13;;;5.97;;
52025;SDS011;38041;40.058;18.328;2023-02-01T12:51:11;7.47;;;2.57;;
52025;SDS011;38041;40.058;18.328;2023-02-01T12:53:50;3.53;;;0.50;;
52025;SDS011;38041;40.058;18.328;2023-02-01T12:56:43;6.10;;;3.17;;
52025;SDS011;38041;40.058;18.328;2023-02-01T12:59:34;7.23;;;3.13;;
52025;SDS011;38041;40.058;18.328;2023-02-01T13:02:14;8.97;;;4.90;;
52025;SDS011;38041;40.058;18.328;2023-02-01T13:07:41;13.20;;;5.83;;
52025;SDS011;38041;40.058;18.328;2023-02-01T13:10:18;20.67;;;11.80;;
52025;SDS011;38041;40.058;18.328;2023-02-01T13:12:50;6.90;;;3.83;;
52025;SDS011;38041;40.058;18.328;2023-02-01T13:15:21;4.93;;;1.47;;
52025;SDS011;38041;40.058;18.328;2023-02-01T13:17:51;2.40;;;0.70;;
52025;SDS011;38041;40.058;18.328;2023-02-01T13:20:42;2.70;;;0.90;;
52025;SDS011;38041;40.058;18.328;2023-02-01T13:23:15;2.30;;;1.00;;
52025;SDS011;38041;40.058;18.328;2023-02-01T13:25:47;2.92;;;1.05;;
52025;SDS011;38041;40.058;18.328;2023-02-01T13:28:40;3.97;;;1.17;;
52025;SDS011;38041;40.058;18.328;2023-02-01T13:33:56;2.27;;;0.43;;
52025;SDS011;38041;40.058;18.328;2023-02-01T13:36:36;2.37;;;0.63;;
52025;SDS011;38041;40.058;18.328;2023-02-01T13:44:16;2.33;;;0.60;;
52025;SDS011;38041;40.058;18.328;2023-02-01T13:46:46;7.13;;;2.13;;
52025;SDS011;38041;40.058;18.328;2023-02-01T13:49:38;4.23;;;1.53;;
52025;SDS011;38041;40.058;18.328;2023-02-01T13:52:05;4.10;;;1.30;;
52025;SDS011;38041;40.058;18.328;2023-02-01T13:54:36;2.17;;;0.57;;
52025;SDS011;38041;40.058;18.328;2023-02-01T13:57:06;13.70;;;2.70;;
52025;SDS011;38041;40.058;18.328;2023-02-01T14:04:55;9.73;;;4.93;;
52025;SDS011;38041;40.058;18.328;2023-02-01T14:07:23;1.10;;;0.40;;
52025;SDS011;38041;40.058;18.328;2023-02-01T14:09:51;5.15;;;0.57;;
52025;SDS011;38041;40.058;18.328;2023-02-01T14:15:27;1.42;;;0.40;;
52025;SDS011;38041;40.058;18.328;2023-02-01T14:17:55;2.75;;;0.50;;
52025;SDS011;38041;40.058;18.328;2023-02-01T14:20:42;3.03;;;0.50;;
52025;SDS011;38041;40.058;18.328;2023-02-01T14:23:16;1.75;;;0.70;;
52025;SDS011;38041;40.058;18.328;2023-02-01T14:25:45;1.80;;;0.60;;
52025;SDS011;38041;40.058;18.328;2023-02-01T14:28:23;2.97;;;0.88;;
52025;SDS011;38041;40.058;18.328;2023-02-01T14:30:53;11.60;;;0.80;;
52025;SDS011;38041;40.058;18.328;2023-02-01T14:33:22;1.10;;;0.60;;
52025;SDS011;38041;40.058;18.328;2023-02-01T14:36:04;2.58;;;0.60;;
52025;SDS011;38041;40.058;18.328;2023-02-01T14:38:33;2.60;;;0.60;;
52025;SDS011;38041;40.058;18.328;2023-02-01T14:49:12;1.33;;;0.60;;
52025;SDS011;38041;40.058;18.328;2023-02-01T14:51:40;2.65;;;0.50;;
52025;SDS011;38041;40.058;18.328;2023-02-01T14:54:08;3.30;;;1.88;;
52025;SDS011;38041;40.058;18.328;2023-02-01T14:56:39;3.72;;;0.98;;
52025;SDS011;38041;40.058;18.328;2023-02-01T14:59:09;3.92;;;0.80;;
52025;SDS011;38041;40.058;18.328;2023-02-01T15:01:55;2.90;;;1.15;;
52025;SDS011;38041;40.058;18.328;2023-02-01T15:04:25;2.28;;;0.68;;
52025;SDS011;38041;40.058;18.328;2023-02-01T15:07:06;1.40;;;0.60;;
52025;SDS011;38041;40.058;18.328;2023-02-01T15:09:45;3.60;;;0.70;;
52025;SDS011;38041;40.058;18.328;2023-02-01T15:12:17;3.17;;;0.88;;
52025;SDS011;38041;40.058;18.328;2023-02-01T15:20:19;4.22;;;1.23;;
52025;SDS011;38041;40.058;18.328;2023-02-01T15:22:54;4.00;;;1.48;;
52025;SDS011;38041;40.058;18.328;2023-02-01T15:25:24;2.13;;;0.75;;
52025;SDS011;38041;40.058;18.328;2023-02-01T15:27:52;3.72;;;1.17;;
52025;SDS011;38041;40.058;18.328;2023-02-01T15:32:51;3.72;;;1.48;;
52025;SDS011;38041;40.058;18.328;2023-02-01T15:35:32;15.55;;;8.75;;
52025;SDS011;38041;40.058;18.328;2023-02-01T15:43:21;7.00;;;5.17;;
52025;SDS011;38041;40.058;18.328;2023-02-01T15:45:49;6.63;;;5.43;;
52025;SDS011;38041;40.058;18.328;2023-02-01T15:48:20;6.33;;;4.47;;
52025;SDS011;38041;40.058;18.328;2023-02-01T15:50:50;7.10;;;4.03;;
52025;SDS011;38041;40.058;18.328;2023-02-01T15:53:19;7.57;;;4.87;;
52025;SDS011;38041;40.058;18.328;2023-02-01T15:55:51;7.87;;;5.37;;
52025;SDS011;38041;40.058;18.328;2023-02-01T15:58:20;14.17;;;6.10;;
52025;SDS011;38041;40.058;18.328;2023-02-01T16:00:55;6.43;;;2.33;;
52025;SDS011;38041;40.058;18.328;2023-02-01T16:03:43;4.33;;;1.77;;
52025;SDS011;38041;40.058;18.328;2023-02-01T16:06:18;4.50;;;1.57;;
52025;SDS011;38041;40.058;18.328;2023-02-01T16:11:28;4.67;;;0.93;;
52025;SDS011;38041;40.058;18.328;2023-02-01T16:13:59;7.57;;;2.00;;
52025;SDS011;38041;40.058;18.328;2023-02-01T16:16:28;5.63;;;2.80;;
52025;SDS011;38041;40.058;18.328;2023-02-01T16:18:56;10.47;;;2.10;;
52025;SDS011;38041;40.058;18.328;2023-02-01T16:21:24;11.10;;;5.67;;
52025;SDS011;38041;40.058;18.328;2023-02-01T16:23:52;12.93;;;8.63;;
52025;SDS011;38041;40.058;18.328;2023-02-01T16:26:20;19.27;;;10.93;;
52025;SDS011;38041;40.058;18.328;2023-02-01T16:28:48;16.53;;;10.50;;
52025;SDS011;38041;40.058;18.328;2023-02-01T16:31:17;14.87;;;8.67;;
52025;SDS011;38041;40.058;18.328;2023-02-01T16:33:48;16.30;;;9.57;;
52025;SDS011;38041;40.058;18.328;2023-02-01T16:36:17;18.93;;;11.57;;
52025;SDS011;38041;40.058;18.328;2023-02-01T16:38:45;12.10;;;8.03;;
52025;SDS011;38041;40.058;18.328;2023-02-01T16:41:19;16.13;;;9.67;;
52025;SDS011;38041;40.058;18.328;2023-02-01T16:43:51;27.43;;;13.10;;
52025;SDS011;38041;40.058;18.328;2023-02-01T16:46:20;25.63;;;12.57;;
52025;SDS011;38041;40.058;18.328;2023-02-01T16:49:00;20.03;;;12.93;;
52025;SDS011;38041;40.058;18.328;2023-02-01T16:51:29;17.60;;;10.37;;
52025;SDS011;38041;40.058;18.328;2023-02-01T16:53:59;14.80;;;7.53;;
52025;SDS011;38041;40.058;18.328;2023-02-01T16:56:31;8.17;;;5.50;;
52025;SDS011;38041;40.058;18.328;2023-02-01T16:59:00;9.00;;;4.53;;
52025;SDS011;38041;40.058;18.328;2023-02-01T17:01:28;12.93;;;5.90;;
52025;SDS011;38041;40.058;18.328;2023-02-01T17:03:55;13.53;;;7.27;;
52025;SDS011;38041;40.058;18.328;2023-02-01T17:06:24;18.57;;;10.03;;
52025;SDS011;38041;40.058;18.328;2023-02-01T17:08:55;19.80;;;9.30;;
52025;SDS011;38041;40.058;18.328;2023-02-01T17:11:27;12.40;;;5.95;;
52025;SDS011;38041;40.058;18.328;2023-02-01T17:13:57;16.63;;;7.57;;
52025;SDS011;38041;40.058;18.328;2023-02-01T17:16:28;15.33;;;9.17;;
52025;SDS011;38041;40.058;18.328;2023-02-01T17:19:03;16.07;;;9.50;;
52025;SDS011;38041;40.058;18.328;2023-02-01T17:21:40;22.38;;;13.15;;
52025;SDS011;38041;40.058;18.328;2023-02-01T17:24:15;30.30;;;17.33;;
52025;SDS011;38041;40.058;18.328;2023-02-01T17:26:43;20.60;;;11.07;;